createdAt,value
2022-10-19T00:03:45.514Z,17.78
2022-10-19T00:08:48.575Z,17.51
2022-10-19T00:13:52.749Z,18.48
2022-10-19T00:18:57.725Z,21.23
2022-10-19T00:24:00.617Z,21.34
2022-10-19T00:29:04.428Z,19.96
2022-10-19T00:34:07.565Z,19.16
2022-10-19T00:39:15.616Z,18.63
2022-10-19T00:44:18.407Z,18.19
2022-10-19T00:49:26.798Z,17.83
2022-10-19T00:54:34.816Z,17.52
2022-10-19T00:59:39.475Z,18.36
2022-10-19T01:04:47.821Z,21.04
2022-10-19T01:09:51.210Z,21.22
2022-10-19T01:15:03.501Z,19.83
2022-10-19T01:20:33.026Z,18.97
2022-10-19T01:25:42.462Z,18.29
2022-10-19T01:31:19.754Z,17.78
2022-10-19T01:36:34.576Z,17.36
2022-10-19T01:41:43.997Z,18.29
2022-10-19T01:46:53.667Z,21.03
2022-10-19T01:52:02.008Z,20.90
2022-10-19T01:57:08.232Z,19.45
2022-10-19T02:02:14.010Z,18.63
2022-10-19T02:07:20.649Z,18.05
2022-10-19T02:12:25.933Z,17.57
2022-10-19T02:17:33.447Z,18.28
2022-10-19T02:22:36.715Z,20.93
2022-10-19T02:27:44.273Z,20.97
2022-10-19T02:32:47.488Z,19.46
2022-10-19T02:37:50.808Z,18.65
2022-10-19T02:43:01.775Z,18.12
2022-10-19T02:48:07.830Z,17.70
2022-10-19T02:53:10.655Z,18.47
2022-10-19T02:58:13.674Z,21.13
2022-10-19T03:03:16.683Z,21.17
2022-10-19T03:08:19.835Z,19.70
2022-10-19T03:13:22.643Z,18.83
2022-10-19T03:18:25.464Z,18.24
2022-10-19T03:23:29.409Z,17.77
2022-10-19T03:28:32.810Z,18.56
2022-10-19T03:33:35.677Z,21.20
2022-10-19T03:38:38.492Z,20.88
2022-10-19T03:43:41.404Z,19.42
2022-10-19T03:48:44.424Z,18.60
2022-10-19T03:53:48.317Z,18.05
2022-10-19T03:58:53.825Z,17.58
2022-10-19T04:03:59.297Z,18.45
2022-10-19T04:09:04.115Z,21.12
2022-10-19T04:14:07.142Z,21.24
2022-10-19T04:19:14.493Z,19.63
2022-10-19T04:24:19.161Z,18.67
2022-10-19T04:29:26.467Z,18.06
2022-10-19T04:34:35.187Z,17.54
2022-10-19T04:39:43.218Z,18.30
2022-10-19T04:44:46.007Z,20.94
2022-10-19T04:49:48.874Z,20.32
2022-10-19T04:54:52.661Z,18.98
2022-10-19T04:59:58.887Z,18.20
2022-10-19T05:05:02.075Z,17.63
2022-10-19T05:10:06.042Z,17.22
2022-10-19T05:15:09.355Z,18.00
2022-10-19T05:20:12.434Z,20.68
2022-10-19T05:25:15.296Z,20.41
2022-10-19T05:30:19.070Z,18.97
2022-10-19T05:35:22.709Z,18.16
2022-10-19T05:40:26.017Z,17.60
2022-10-19T05:45:29.050Z,17.17
2022-10-19T05:50:32.638Z,16.83
2022-10-19T05:55:37.706Z,17.70
2022-10-19T06:00:40.582Z,20.37
2022-10-19T06:05:43.680Z,19.72
2022-10-19T06:10:47.437Z,18.49
2022-10-19T06:15:51.432Z,17.82
2022-10-19T06:20:54.428Z,17.33
2022-10-19T06:25:59.598Z,16.93
2022-10-19T06:31:05.934Z,16.58
2022-10-19T06:36:16.985Z,16.29
2022-10-19T06:41:21.263Z,16.07
2022-10-19T06:46:25.828Z,15.90
2022-10-19T06:51:30.790Z,16.96
2022-10-19T06:56:33.897Z,19.84
2022-10-19T07:01:36.731Z,19.39
2022-10-19T07:06:39.884Z,18.25
2022-10-19T07:11:46.158Z,17.58
2022-10-19T07:16:50.631Z,17.18
2022-10-19T07:21:53.604Z,16.90
2022-10-19T07:26:56.519Z,16.65
2022-10-19T07:31:59.396Z,16.42
2022-10-19T07:37:02.435Z,16.29
2022-10-19T07:42:05.383Z,16.17
2022-10-19T07:47:08.360Z,16.04
2022-10-19T07:52:11.370Z,15.86
2022-10-19T07:57:15.299Z,15.75
2022-10-19T08:02:20.355Z,15.62
2022-10-19T08:07:23.522Z,15.50
2022-10-19T08:12:26.880Z,16.63
2022-10-19T08:17:30.943Z,19.45
2022-10-19T08:22:34.351Z,18.77
2022-10-19T08:27:37.477Z,17.74
2022-10-19T08:32:40.312Z,17.19
2022-10-19T08:37:45.475Z,16.76
2022-10-19T08:43:24.900Z,16.42
2022-10-19T08:48:30.441Z,16.15
2022-10-19T08:53:37.914Z,15.96
2022-10-19T08:59:22.408Z,15.79
2022-10-19T09:04:41.904Z,15.62
2022-10-19T09:09:51.516Z,15.46
2022-10-19T09:15:07.701Z,15.35
2022-10-19T09:20:18.570Z,15.26
2022-10-19T09:25:23.267Z,15.17
2022-10-19T09:30:28.659Z,15.13
2022-10-19T09:35:41.565Z,15.14
2022-10-19T09:40:44.839Z,15.13
2022-10-19T09:46:19.792Z,15.15
2022-10-19T09:51:23.786Z,15.22
2022-10-19T09:56:28.332Z,15.20
2022-10-19T10:01:47.340Z,15.21
2022-10-19T10:06:50.691Z,15.23
2022-10-19T10:11:56.964Z,15.32
2022-10-19T10:17:07.420Z,15.43
2022-10-19T10:22:25.635Z,15.51
2022-10-19T10:27:32.902Z,15.51
2022-10-19T10:32:39.225Z,15.48
2022-10-19T10:37:45.270Z,15.43
2022-10-19T10:42:50.623Z,15.39
2022-10-19T10:47:54.269Z,15.38
2022-10-19T10:53:19.031Z,15.36
2022-10-19T10:58:40.927Z,15.34
2022-10-19T11:03:50.945Z,15.36
2022-10-19T11:09:05.473Z,15.37
2022-10-19T11:14:32.933Z,15.41
2022-10-19T11:19:44.605Z,15.41
2022-10-19T11:25:17.700Z,15.38
2022-10-19T11:30:23.240Z,15.29
2022-10-19T11:35:40.582Z,15.23
2022-10-19T11:41:17.382Z,15.23
2022-10-19T11:46:36.320Z,15.23
2022-10-19T11:51:59.645Z,15.20
2022-10-19T11:57:12.342Z,15.17
2022-10-19T12:02:27.365Z,15.19
2022-10-19T12:07:49.400Z,15.19
2022-10-19T12:12:58.954Z,15.17
2022-10-19T12:18:12.665Z,15.11
2022-10-19T12:23:38.261Z,15.08
2022-10-19T12:28:46.991Z,15.09
2022-10-19T12:34:20.380Z,15.11
2022-10-19T12:39:30.093Z,15.26
2022-10-19T12:45:10.845Z,15.37
2022-10-19T12:50:13.845Z,15.37
2022-10-19T12:55:16.675Z,15.32
2022-10-19T13:00:24.466Z,15.24
2022-10-19T13:05:29.917Z,15.16
2022-10-19T13:10:33.778Z,15.09
2022-10-19T13:15:36.574Z,15.06
2022-10-19T13:25:44.311Z,15.00
2022-10-19T13:30:47.197Z,14.98
2022-10-19T13:36:05.950Z,14.93
2022-10-19T13:41:18.665Z,14.90
2022-10-19T13:46:30.737Z,14.91
2022-10-19T13:51:41.275Z,14.90
2022-10-19T13:57:11.849Z,14.91
2022-10-19T14:02:39.025Z,14.94
2022-10-19T14:07:54.373Z,15.05
2022-10-19T14:12:58.457Z,15.17
2022-10-19T14:18:03.818Z,15.34
2022-10-19T14:23:27.179Z,15.42
2022-10-19T14:28:31.954Z,15.38
2022-10-19T14:33:38.352Z,15.30
2022-10-19T14:38:46.654Z,15.20
2022-10-19T14:43:49.671Z,15.12
2022-10-19T14:48:58.513Z,15.04
2022-10-19T14:54:08.346Z,14.99
2022-10-19T14:59:25.084Z,14.94
2022-10-19T15:04:33.600Z,14.91
2022-10-19T15:09:48.222Z,14.90
2022-10-19T15:14:53.880Z,14.88
2022-10-19T15:20:02.812Z,14.85
2022-10-19T15:25:09.298Z,14.77
2022-10-19T15:30:17.390Z,14.67
2022-10-19T15:35:29.332Z,14.62
2022-10-19T15:40:40.714Z,14.59
2022-10-19T15:45:44.116Z,14.54
2022-10-19T15:50:50.176Z,14.54
2022-10-19T15:55:53.309Z,14.50
2022-10-19T16:00:56.237Z,14.47
2022-10-19T16:05:59.187Z,14.48
2022-10-19T16:11:04.264Z,14.49
2022-10-19T16:16:11.459Z,14.45
2022-10-19T16:21:15.336Z,14.44
2022-10-19T16:26:18.852Z,14.45
2022-10-19T16:31:23.155Z,14.43
2022-10-19T16:36:26.218Z,14.43
2022-10-19T16:41:29.113Z,14.40
2022-10-19T16:46:32.157Z,14.33
2022-10-19T16:51:40.173Z,14.30
2022-10-19T16:56:45.916Z,14.32
2022-10-19T17:01:58.111Z,14.30
2022-10-19T17:07:01.005Z,14.25
2022-10-19T17:12:04.754Z,14.20
2022-10-19T17:17:08.352Z,14.18
2022-10-19T17:22:11.301Z,14.14
2022-10-19T17:27:14.464Z,14.11
2022-10-19T17:32:17.581Z,14.08
2022-10-19T17:37:20.482Z,14.06
2022-10-19T17:42:23.416Z,14.04
2022-10-19T17:47:26.295Z,14.01
2022-10-19T17:52:29.122Z,13.96
2022-10-19T17:57:32.579Z,13.87
2022-10-19T18:02:36.044Z,14.84
2022-10-19T18:07:39.106Z,18.01
2022-10-19T18:12:42.021Z,18.74
2022-10-19T18:17:44.880Z,17.24
2022-10-19T18:22:48.308Z,16.34
2022-10-19T18:27:51.240Z,15.79
2022-10-19T18:32:54.358Z,15.36
2022-10-19T18:37:57.446Z,14.99
2022-10-19T18:43:00.455Z,14.70
2022-10-19T18:48:03.564Z,14.46
2022-10-19T18:53:06.457Z,14.28
2022-10-19T18:58:10.090Z,14.10
2022-10-19T19:03:13.010Z,13.96
2022-10-19T19:08:16.090Z,13.84
2022-10-19T19:13:18.974Z,13.73
2022-10-19T19:18:22.885Z,13.66
2022-10-19T19:23:25.789Z,13.57
2022-10-19T19:28:28.739Z,14.66
2022-10-19T19:33:31.802Z,17.74
2022-10-19T19:38:35.436Z,18.23
2022-10-19T19:43:39.271Z,16.77
2022-10-19T19:48:44.310Z,15.94
2022-10-19T19:53:48.180Z,15.50
2022-10-19T19:58:55.846Z,15.08
2022-10-19T20:04:00.161Z,14.69
2022-10-19T20:09:04.656Z,14.36
2022-10-19T20:14:07.651Z,14.11
2022-10-19T20:19:13.382Z,13.91
2022-10-19T20:24:17.715Z,13.75
2022-10-19T20:29:22.264Z,13.63
2022-10-19T20:34:25.199Z,13.50
2022-10-19T20:39:28.374Z,13.35
2022-10-19T20:44:31.385Z,13.23
2022-10-19T20:49:34.616Z,14.28
2022-10-19T20:54:37.555Z,17.32
2022-10-19T20:59:40.528Z,17.43
2022-10-19T21:04:43.694Z,16.02
2022-10-19T21:09:46.593Z,15.18
2022-10-19T21:14:49.478Z,14.63
2022-10-19T21:19:55.026Z,14.20
2022-10-19T21:25:00.100Z,13.86
2022-10-19T21:30:04.107Z,13.56
2022-10-19T21:35:07.508Z,13.30
2022-10-19T21:40:10.977Z,13.11
2022-10-19T21:45:30.672Z,12.97
2022-10-19T21:50:34.271Z,14.17
2022-10-19T21:55:37.728Z,17.21
2022-10-19T22:00:40.834Z,17.38
2022-10-19T22:05:53.497Z,15.93
2022-10-19T22:10:56.602Z,15.06
2022-10-19T22:16:17.428Z,14.43
2022-10-19T22:21:24.234Z,13.92
2022-10-19T22:26:31.450Z,13.53
2022-10-19T22:31:35.980Z,13.20
2022-10-19T22:36:39.210Z,12.94
2022-10-19T22:42:38.470Z,12.70
2022-10-19T22:47:59.961Z,12.47
2022-10-19T22:53:03.117Z,12.31
2022-10-19T22:58:07.624Z,12.16
2022-10-19T23:03:10.820Z,12.02
2022-10-19T23:08:13.738Z,11.89
2022-10-19T23:13:16.994Z,11.76
2022-10-19T23:18:20.701Z,11.64
2022-10-19T23:23:24.539Z,11.54
2022-10-19T23:28:28.279Z,11.45
2022-10-19T23:33:32.017Z,11.37
2022-10-19T23:38:35.857Z,11.26
2022-10-19T23:43:38.822Z,11.17
2022-10-19T23:48:42.277Z,11.08
2022-10-19T23:53:47.430Z,11.00
2022-10-19T23:58:50.952Z,10.87
